createdAt,value
2023-02-23T00:01:52.115Z,59.77
2023-02-23T00:04:18.991Z,60.66
2023-02-23T00:06:45.983Z,60.39
2023-02-23T00:09:22.552Z,60.33
2023-02-23T00:11:50.733Z,60.92
2023-02-23T00:14:17.469Z,59.94
2023-02-23T00:16:47.372Z,60.01
2023-02-23T00:19:14.376Z,60.25
2023-02-23T00:21:42.040Z,59.87
2023-02-23T00:24:11.563Z,60.57
2023-02-23T00:26:40.079Z,60.88
2023-02-23T00:29:09.471Z,61.42
2023-02-23T00:31:38.632Z,60.94
2023-02-23T00:34:06.209Z,60.39
2023-02-23T00:36:34.515Z,60.72
2023-02-23T00:39:18.128Z,60.82
2023-02-23T00:41:46.449Z,60.86
2023-02-23T00:44:15.370Z,60.68
2023-02-23T00:46:43.332Z,60.52
2023-02-23T00:49:14.625Z,60.88
2023-02-23T00:51:41.401Z,60.99
2023-02-23T00:54:08.781Z,60.62
2023-02-23T00:56:35.599Z,59.91
2023-02-23T00:59:02.343Z,60.54
2023-02-23T01:01:29.123Z,60.51
2023-02-23T01:03:56.103Z,59.88
2023-02-23T01:06:24.017Z,61.48
2023-02-23T01:08:56.723Z,60.73
2023-02-23T01:11:31.073Z,61.02
2023-02-23T01:13:59.852Z,60.49
2023-02-23T01:16:30.659Z,60.88
2023-02-23T01:19:00.125Z,61.25
2023-02-23T01:21:30.072Z,61.67
2023-02-23T01:23:57.219Z,61.13
2023-02-23T01:26:30.330Z,60.90
2023-02-23T01:29:00.705Z,60.56
2023-02-23T01:31:29.328Z,61.04
2023-02-23T01:34:00.502Z,61.75
2023-02-23T01:36:32.846Z,61.53
2023-02-23T01:39:00.540Z,61.48
2023-02-23T01:41:32.859Z,61.37
2023-02-23T01:44:01.294Z,61.84
2023-02-23T01:46:32.267Z,61.28
2023-02-23T01:48:59.642Z,61.52
2023-02-23T01:51:30.605Z,61.27
2023-02-23T01:54:07.358Z,60.84
2023-02-23T01:56:43.402Z,61.24
2023-02-23T01:59:12.375Z,61.21
2023-02-23T02:01:40.734Z,62.58
2023-02-23T02:04:08.986Z,61.72
2023-02-23T02:06:37.940Z,62.06
2023-02-23T02:09:10.300Z,61.79
2023-02-23T02:11:38.909Z,62.59
2023-02-23T02:14:29.077Z,62.56
2023-02-23T02:17:06.742Z,62.02
2023-02-23T02:19:43.987Z,61.46
2023-02-23T02:22:30.637Z,62.52
2023-02-23T02:25:11.921Z,62.75
2023-02-23T02:28:23.489Z,63.58
2023-02-23T02:31:10.439Z,62.16
2023-02-23T02:33:43.806Z,61.86
2023-02-23T02:36:41.365Z,62.78
2023-02-23T02:39:40.405Z,61.57
2023-02-23T02:42:36.124Z,62.77
2023-02-23T02:45:20.300Z,63.27
2023-02-23T02:48:04.303Z,62.98
2023-02-23T02:50:46.947Z,62.40
2023-02-23T02:53:20.943Z,63.36
2023-02-23T02:55:49.044Z,63.33
2023-02-23T02:58:17.759Z,62.70
2023-02-23T03:01:07.474Z,62.74
2023-02-23T03:03:59.916Z,62.47
2023-02-23T03:07:04.542Z,62.37
2023-02-23T03:10:08.223Z,62.53
2023-02-23T03:13:10.100Z,62.25
2023-02-23T03:16:06.753Z,62.87
2023-02-23T03:19:01.480Z,61.86
2023-02-23T03:22:12.806Z,62.59
2023-02-23T03:25:04.590Z,62.11
2023-02-23T03:27:53.581Z,62.58
2023-02-23T03:30:46.067Z,63.23
2023-02-23T03:33:43.022Z,62.99
2023-02-23T03:36:35.737Z,63.49
2023-02-23T03:39:47.230Z,63.91
2023-02-23T03:42:38.055Z,64.08
2023-02-23T03:45:29.174Z,63.33
2023-02-23T03:48:18.272Z,63.30
2023-02-23T03:51:12.425Z,63.59
2023-02-23T03:54:06.789Z,63.73
2023-02-23T03:56:58.411Z,62.84
2023-02-23T03:59:48.322Z,63.51
2023-02-23T04:02:36.656Z,62.80
2023-02-23T04:05:28.301Z,63.09
2023-02-23T04:08:14.625Z,63.62
2023-02-23T04:11:09.764Z,63.83
2023-02-23T04:13:39.263Z,64.07
2023-02-23T04:16:08.993Z,63.15
2023-02-23T04:18:38.648Z,63.74
2023-02-23T04:21:07.273Z,63.20
2023-02-23T04:23:35.253Z,62.74
2023-02-23T04:26:02.005Z,63.40
2023-02-23T04:28:29.295Z,63.42
2023-02-23T04:30:56.237Z,63.11
2023-02-23T04:33:25.486Z,63.11
2023-02-23T04:35:55.545Z,63.51
2023-02-23T04:38:23.233Z,63.65
2023-02-23T04:40:50.444Z,64.07
2023-02-23T04:43:17.253Z,63.47
2023-02-23T04:45:45.128Z,63.41
2023-02-23T04:48:11.921Z,63.19
2023-02-23T04:50:39.683Z,64.11
2023-02-23T04:53:06.727Z,64.21
2023-02-23T04:55:33.736Z,63.98
2023-02-23T04:58:02.061Z,63.41
2023-02-23T05:00:29.786Z,64.14
2023-02-23T05:02:57.567Z,64.44
2023-02-23T05:05:24.577Z,63.32
2023-02-23T05:07:51.382Z,64.16
2023-02-23T05:10:18.147Z,63.84
2023-02-23T05:12:44.834Z,63.92
2023-02-23T05:15:11.682Z,64.27
2023-02-23T05:17:41.247Z,64.90
2023-02-23T05:20:10.325Z,64.69
2023-02-23T05:22:37.787Z,64.03
2023-02-23T05:25:06.153Z,63.65
2023-02-23T05:27:33.363Z,63.24
2023-02-23T05:30:01.206Z,63.67
2023-02-23T05:32:28.634Z,64.37
2023-02-23T05:34:55.563Z,63.80
2023-02-23T05:37:22.344Z,64.31
2023-02-23T05:39:49.128Z,63.73
2023-02-23T05:42:15.953Z,63.53
2023-02-23T05:44:42.700Z,64.31
2023-02-23T05:47:10.845Z,63.90
2023-02-23T05:49:38.434Z,64.35
2023-02-23T05:52:05.681Z,63.67
2023-02-23T05:54:32.738Z,64.23
2023-02-23T05:57:01.730Z,64.48
2023-02-23T05:59:28.791Z,64.45
2023-02-23T06:01:55.608Z,64.57
2023-02-23T06:04:23.335Z,64.07
2023-02-23T06:06:50.391Z,64.05
2023-02-23T06:09:17.408Z,63.03
2023-02-23T06:11:44.661Z,63.99
2023-02-23T06:14:11.730Z,64.37
2023-02-23T06:16:39.412Z,64.50
2023-02-23T06:19:06.357Z,64.56
2023-02-23T06:21:33.800Z,64.99
2023-02-23T06:24:01.014Z,64.09
2023-02-23T06:26:28.537Z,64.10
2023-02-23T06:28:56.012Z,64.66
2023-02-23T06:31:23.079Z,64.46
2023-02-23T06:33:50.127Z,64.52
2023-02-23T06:36:17.906Z,64.29
2023-02-23T06:38:45.161Z,64.98
2023-02-23T06:41:12.633Z,63.35
2023-02-23T06:43:39.520Z,63.76
2023-02-23T06:46:06.512Z,64.53
2023-02-23T06:48:33.282Z,64.08
2023-02-23T06:51:00.479Z,64.17
2023-02-23T06:53:27.495Z,65.15
2023-02-23T06:55:54.342Z,64.59
2023-02-23T06:58:21.297Z,65.22
2023-02-23T07:00:48.177Z,64.50
2023-02-23T07:03:15.390Z,64.93
2023-02-23T07:05:42.192Z,65.65
2023-02-23T07:08:09.235Z,65.12
2023-02-23T07:10:36.147Z,64.18
2023-02-23T07:13:02.928Z,64.24
2023-02-23T07:15:29.972Z,63.26
2023-02-23T07:17:56.806Z,63.59
2023-02-23T07:20:23.878Z,63.86
2023-02-23T07:22:50.935Z,63.44
2023-02-23T07:25:18.048Z,63.38
2023-02-23T07:27:45.366Z,63.73
2023-02-23T07:30:13.420Z,63.96
2023-02-23T07:32:40.683Z,63.82
2023-02-23T07:35:07.938Z,63.98
2023-02-23T07:37:34.684Z,63.25
2023-02-23T07:40:01.831Z,63.95
2023-02-23T07:42:28.656Z,62.95
2023-02-23T07:44:56.167Z,64.18
2023-02-23T07:47:30.266Z,62.54
2023-02-23T07:49:58.593Z,62.64
2023-02-23T07:52:25.560Z,62.04
2023-02-23T07:54:52.694Z,61.62
2023-02-23T07:57:21.612Z,61.44
2023-02-23T07:59:50.234Z,61.22
2023-02-23T08:02:16.996Z,60.54
2023-02-23T08:04:43.817Z,60.35
2023-02-23T08:07:10.966Z,60.80
2023-02-23T08:09:38.206Z,60.60
2023-02-23T08:12:05.997Z,60.71
2023-02-23T08:14:32.774Z,59.18
2023-02-23T08:17:01.532Z,58.43
2023-02-23T08:19:28.877Z,58.08
2023-02-23T08:21:57.060Z,57.52
2023-02-23T08:24:26.462Z,58.16
2023-02-23T08:26:53.494Z,58.99
2023-02-23T08:29:21.434Z,57.90
2023-02-23T08:31:49.287Z,58.27
2023-02-23T08:34:16.227Z,59.68
2023-02-23T08:36:45.917Z,59.41
2023-02-23T08:39:13.585Z,59.69
2023-02-23T08:41:41.402Z,59.13
2023-02-23T08:44:08.264Z,57.94
2023-02-23T08:46:34.955Z,57.79
2023-02-23T08:49:01.745Z,55.98
2023-02-23T08:51:28.502Z,55.32
2023-02-23T08:53:57.273Z,55.85
2023-02-23T08:56:25.353Z,53.17
2023-02-23T08:58:53.096Z,53.66
2023-02-23T09:01:22.384Z,53.02
2023-02-23T09:03:49.310Z,52.61
2023-02-23T09:06:19.554Z,52.45
2023-02-23T09:08:46.299Z,52.32
2023-02-23T09:11:13.077Z,49.96
2023-02-23T09:13:39.779Z,49.38
2023-02-23T09:16:07.848Z,50.53
2023-02-23T09:18:35.536Z,51.52
2023-02-23T09:21:10.902Z,50.93
2023-02-23T09:23:37.792Z,50.81
2023-02-23T09:26:08.907Z,50.78
2023-02-23T09:28:36.107Z,51.36
2023-02-23T09:31:11.937Z,52.29
2023-02-23T09:33:39.777Z,51.48
2023-02-23T09:36:12.884Z,52.31
2023-02-23T09:38:40.128Z,50.45
2023-02-23T09:41:40.047Z,52.02
2023-02-23T09:44:19.130Z,50.24
2023-02-23T09:46:52.288Z,50.74
2023-02-23T09:49:22.996Z,51.14
2023-02-23T09:51:57.627Z,49.01
2023-02-23T09:54:29.586Z,48.65
2023-02-23T09:56:58.398Z,48.89
2023-02-23T09:59:26.188Z,48.57
2023-02-23T10:02:02.983Z,47.78
2023-02-23T10:05:11.845Z,45.67
2023-02-23T10:07:44.450Z,44.33
2023-02-23T10:10:29.208Z,44.95
2023-02-23T10:13:01.821Z,43.32
2023-02-23T10:15:37.078Z,44.82
2023-02-23T10:18:45.574Z,45.07
2023-02-23T10:21:19.903Z,42.21
2023-02-23T10:24:10.302Z,43.98
2023-02-23T10:26:47.282Z,43.47
2023-02-23T10:29:27.016Z,44.46
2023-02-23T10:32:01.084Z,43.02
2023-02-23T10:34:29.317Z,41.88
2023-02-23T10:37:00.285Z,41.51
2023-02-23T10:39:28.638Z,41.53
2023-02-23T10:42:00.613Z,40.89
2023-02-23T10:44:29.265Z,39.67
2023-02-23T10:47:07.861Z,40.59
2023-02-23T10:49:50.184Z,40.79
2023-02-23T10:52:25.067Z,39.68
2023-02-23T10:54:52.291Z,39.67
2023-02-23T10:57:26.700Z,39.49
2023-02-23T11:00:20.352Z,38.58
2023-02-23T11:02:47.983Z,39.35
2023-02-23T11:05:31.952Z,36.67
2023-02-23T11:08:27.561Z,36.42
2023-02-23T11:11:08.283Z,37.90
2023-02-23T11:13:46.817Z,38.43
2023-02-23T11:16:23.256Z,37.64
2023-02-23T11:18:56.364Z,37.79
2023-02-23T11:21:26.467Z,37.67
2023-02-23T11:23:57.243Z,37.94
2023-02-23T11:26:28.427Z,38.51
2023-02-23T11:28:59.572Z,38.79
2023-02-23T11:31:34.630Z,40.20
2023-02-23T11:34:04.147Z,40.54
2023-02-23T11:36:38.017Z,40.30
2023-02-23T11:39:19.892Z,39.89
2023-02-23T11:41:46.803Z,40.36
2023-02-23T11:44:24.936Z,40.96
2023-02-23T11:46:52.395Z,39.48
2023-02-23T11:49:27.012Z,39.96
2023-02-23T11:51:54.838Z,39.91
2023-02-23T11:54:31.087Z,39.73
2023-02-23T11:56:58.724Z,40.06
2023-02-23T11:59:30.992Z,40.84
2023-02-23T12:02:24.915Z,41.10
2023-02-23T12:05:09.887Z,40.94
2023-02-23T12:07:46.376Z,42.13
2023-02-23T12:10:24.453Z,42.43
2023-02-23T12:12:58.125Z,42.19
2023-02-23T12:15:33.250Z,42.85
2023-02-23T12:18:09.375Z,42.14
2023-02-23T12:20:43.483Z,42.96
2023-02-23T12:23:15.710Z,42.73
2023-02-23T12:25:59.714Z,42.89
2023-02-23T12:28:45.240Z,42.41
2023-02-23T12:31:42.899Z,42.72
2023-02-23T12:34:17.465Z,43.68
2023-02-23T12:36:50.666Z,44.08
2023-02-23T12:39:46.660Z,43.93
2023-02-23T12:43:02.243Z,44.11
2023-02-23T12:45:34.017Z,45.13
2023-02-23T12:48:07.776Z,45.75
2023-02-23T12:50:40.840Z,46.46
2023-02-23T12:53:18.491Z,46.50
2023-02-23T12:55:57.803Z,46.61
2023-02-23T12:58:50.123Z,47.24
2023-02-23T13:01:22.584Z,47.42
2023-02-23T13:04:26.544Z,47.34
2023-02-23T13:07:23.118Z,46.88
2023-02-23T13:10:03.222Z,46.41
2023-02-23T13:12:45.862Z,46.31
2023-02-23T13:15:18.404Z,46.58
2023-02-23T13:17:56.406Z,46.63
2023-02-23T13:20:26.367Z,46.30
2023-02-23T13:23:12.595Z,46.07
2023-02-23T13:25:49.817Z,45.79
2023-02-23T13:28:28.172Z,45.36
2023-02-23T13:30:55.044Z,44.72
2023-02-23T13:33:41.905Z,44.50
2023-02-23T13:36:12.822Z,44.39
2023-02-23T13:39:17.945Z,43.84
2023-02-23T13:42:05.988Z,44.17
2023-02-23T13:44:49.218Z,43.86
2023-02-23T13:47:37.321Z,42.85
2023-02-23T13:50:21.708Z,42.86
2023-02-23T13:52:48.584Z,42.85
2023-02-23T13:55:32.617Z,42.78
2023-02-23T13:58:11.358Z,42.81
2023-02-23T14:00:38.358Z,43.54
2023-02-23T14:03:07.301Z,43.37
2023-02-23T14:05:43.571Z,42.60
2023-02-23T14:08:36.328Z,42.18
2023-02-23T14:11:05.172Z,42.65
2023-02-23T14:13:34.745Z,42.35
2023-02-23T14:16:11.430Z,41.92
2023-02-23T14:18:50.728Z,42.50
2023-02-23T14:21:43.902Z,41.83
2023-02-23T14:24:20.433Z,42.86
2023-02-23T14:27:08.551Z,43.50
2023-02-23T14:29:44.324Z,43.58
2023-02-23T14:32:11.239Z,44.38
2023-02-23T14:35:01.555Z,44.77
2023-02-23T14:37:35.818Z,44.85
2023-02-23T14:40:14.968Z,45.76
2023-02-23T14:42:46.054Z,45.94
2023-02-23T14:45:26.978Z,46.19
2023-02-23T14:47:58.598Z,46.31
2023-02-23T14:50:43.759Z,46.07
2023-02-23T14:53:23.731Z,46.86
2023-02-23T14:55:50.609Z,47.60
2023-02-23T14:58:29.225Z,48.06
2023-02-23T15:00:56.011Z,47.91
2023-02-23T15:03:22.831Z,48.24
2023-02-23T15:06:01.927Z,47.86
2023-02-23T15:08:31.097Z,48.17
2023-02-23T15:11:03.159Z,47.87
2023-02-23T15:13:39.938Z,48.29
2023-02-23T15:16:09.936Z,48.34
2023-02-23T15:18:42.893Z,49.12
2023-02-23T15:21:24.847Z,48.95
2023-02-23T15:24:05.051Z,48.98
2023-02-23T15:26:38.132Z,49.16
2023-02-23T15:29:13.561Z,49.89
2023-02-23T15:31:50.208Z,49.98
2023-02-23T15:34:20.089Z,49.84
2023-02-23T15:36:55.272Z,50.28
2023-02-23T15:39:38.656Z,50.46
2023-02-23T15:42:13.314Z,50.58
2023-02-23T15:44:44.840Z,50.70
2023-02-23T15:47:28.537Z,50.83
2023-02-23T15:50:14.290Z,50.96
2023-02-23T15:52:51.821Z,50.97
2023-02-23T15:55:25.585Z,51.49
2023-02-23T15:57:58.991Z,51.15
2023-02-23T16:00:38.758Z,51.01
2023-02-23T16:03:08.176Z,51.10
2023-02-23T16:05:47.101Z,51.87
2023-02-23T16:08:23.030Z,52.23
2023-02-23T16:10:57.524Z,52.06
2023-02-23T16:13:24.294Z,52.18
2023-02-23T16:15:54.999Z,52.49
2023-02-23T16:18:38.440Z,52.35
2023-02-23T16:21:06.074Z,52.50
2023-02-23T16:23:37.476Z,52.75
2023-02-23T16:26:31.805Z,52.91
2023-02-23T16:29:02.060Z,52.62
2023-02-23T16:31:47.908Z,52.64
2023-02-23T16:34:25.961Z,52.96
2023-02-23T16:36:58.373Z,53.34
2023-02-23T16:39:29.411Z,52.33
2023-02-23T16:42:00.394Z,52.58
2023-02-23T16:44:41.453Z,52.98
2023-02-23T16:47:12.993Z,52.53
2023-02-23T16:49:39.964Z,52.35
2023-02-23T16:52:23.718Z,52.72
2023-02-23T16:54:53.847Z,52.63
2023-02-23T16:57:27.356Z,52.49
2023-02-23T16:59:55.187Z,52.61
2023-02-23T17:02:24.826Z,52.50
2023-02-23T17:04:52.737Z,53.06
2023-02-23T17:07:22.946Z,52.69
2023-02-23T17:09:50.930Z,52.64
2023-02-23T17:12:20.021Z,52.39
2023-02-23T17:14:47.545Z,52.40
2023-02-23T17:17:19.413Z,52.89
2023-02-23T17:19:46.752Z,52.69
2023-02-23T17:22:14.487Z,52.45
2023-02-23T17:24:42.695Z,52.57
2023-02-23T17:27:10.234Z,52.29
2023-02-23T17:29:37.170Z,52.20
2023-02-23T17:32:04.348Z,52.57
2023-02-23T17:34:31.417Z,52.59
2023-02-23T17:37:00.044Z,53.02
2023-02-23T17:39:28.077Z,52.40
2023-02-23T17:41:55.390Z,52.75
2023-02-23T17:44:22.452Z,52.33
2023-02-23T17:46:49.327Z,52.74
2023-02-23T17:49:16.161Z,52.32
2023-02-23T17:51:43.066Z,52.55
2023-02-23T17:54:09.895Z,52.37
2023-02-23T17:56:36.814Z,52.80
2023-02-23T17:59:04.013Z,52.88
2023-02-23T18:01:31.173Z,53.05
2023-02-23T18:03:59.252Z,52.67
2023-02-23T18:06:26.187Z,53.16
2023-02-23T18:08:53.014Z,53.66
2023-02-23T18:11:20.264Z,53.25
2023-02-23T18:13:48.308Z,53.50
2023-02-23T18:16:16.183Z,53.98
2023-02-23T18:18:45.858Z,53.99
2023-02-23T18:21:16.105Z,54.02
2023-02-23T18:23:43.590Z,53.95
2023-02-23T18:26:16.755Z,54.44
2023-02-23T18:28:47.007Z,54.51
2023-02-23T18:31:23.078Z,54.49
2023-02-23T18:33:53.064Z,54.69
2023-02-23T18:36:29.064Z,55.11
2023-02-23T18:39:00.726Z,55.08
2023-02-23T18:41:31.585Z,55.35
2023-02-23T18:44:02.672Z,54.78
2023-02-23T18:46:31.424Z,55.40
2023-02-23T18:48:59.379Z,55.74
2023-02-23T18:51:30.162Z,55.61
2023-02-23T18:53:57.451Z,55.43
2023-02-23T18:56:28.372Z,55.97
2023-02-23T18:59:01.887Z,55.57
2023-02-23T19:01:31.936Z,55.22
2023-02-23T19:04:01.849Z,55.76
2023-02-23T19:06:28.927Z,55.18
2023-02-23T19:08:59.404Z,55.32
2023-02-23T19:11:28.108Z,54.78
2023-02-23T19:13:58.320Z,55.40
2023-02-23T19:16:27.269Z,54.61
2023-02-23T19:18:54.346Z,54.64
2023-02-23T19:21:24.601Z,54.70
2023-02-23T19:23:52.784Z,55.21
2023-02-23T19:26:21.461Z,55.12
2023-02-23T19:28:48.862Z,54.87
2023-02-23T19:31:20.718Z,54.47
2023-02-23T19:33:49.756Z,54.70
2023-02-23T19:36:20.805Z,54.35
2023-02-23T19:38:48.830Z,53.98
2023-02-23T19:41:19.516Z,54.97
2023-02-23T19:43:48.050Z,54.98
2023-02-23T19:46:17.324Z,54.90
2023-02-23T19:48:48.578Z,54.67
2023-02-23T19:51:15.518Z,54.71
2023-02-23T19:53:42.341Z,54.42
2023-02-23T19:56:12.162Z,54.29
2023-02-23T19:58:43.021Z,55.02
2023-02-23T20:01:11.895Z,54.74
2023-02-23T20:03:43.313Z,54.77
2023-02-23T20:06:14.934Z,55.17
2023-02-23T20:08:44.211Z,54.35
2023-02-23T20:11:12.061Z,54.58
2023-02-23T20:13:39.064Z,54.67
2023-02-23T20:16:09.057Z,54.65
2023-02-23T20:18:38.548Z,54.73
2023-02-23T20:21:18.461Z,54.66
2023-02-23T20:23:47.762Z,55.05
2023-02-23T20:26:36.980Z,54.68
2023-02-23T20:29:11.067Z,54.94
2023-02-23T20:31:41.565Z,54.70
2023-02-23T20:34:12.044Z,54.79
2023-02-23T20:36:40.166Z,54.81
2023-02-23T20:39:07.157Z,54.48
2023-02-23T20:41:33.979Z,54.50
2023-02-23T20:44:01.323Z,55.00
2023-02-23T20:46:30.463Z,54.67
2023-02-23T20:48:59.262Z,55.37
2023-02-23T20:51:26.469Z,55.22
2023-02-23T20:53:53.292Z,54.82
2023-02-23T20:56:23.504Z,54.92
2023-02-23T20:58:52.485Z,55.02
2023-02-23T21:01:23.705Z,55.08
2023-02-23T21:03:52.499Z,55.16
2023-02-23T21:06:20.860Z,55.21
2023-02-23T21:08:50.905Z,55.08
2023-02-23T21:11:20.042Z,55.29
2023-02-23T21:13:47.427Z,55.20
2023-02-23T21:16:17.656Z,55.50
2023-02-23T21:18:44.965Z,55.49
2023-02-23T21:21:13.969Z,55.63
2023-02-23T21:23:45.197Z,55.75
2023-02-23T21:26:15.858Z,56.28
2023-02-23T21:28:44.623Z,56.54
2023-02-23T21:31:13.776Z,56.74
2023-02-23T21:33:42.265Z,56.79
2023-02-23T21:36:11.162Z,56.58
2023-02-23T21:38:39.860Z,56.92
2023-02-23T21:41:07.986Z,57.14
2023-02-23T21:43:36.485Z,56.96
2023-02-23T21:46:11.800Z,57.17
2023-02-23T21:48:38.826Z,57.09
2023-02-23T21:51:08.801Z,57.08
2023-02-23T21:53:37.584Z,57.42
2023-02-23T21:56:16.316Z,57.49
2023-02-23T21:58:46.244Z,57.49
2023-02-23T22:01:15.444Z,57.31
2023-02-23T22:03:45.088Z,58.19
2023-02-23T22:06:17.824Z,58.22
2023-02-23T22:08:50.572Z,57.92
2023-02-23T22:11:21.017Z,58.35
2023-02-23T22:13:49.342Z,58.45
2023-02-23T22:16:19.062Z,58.41
2023-02-23T22:18:46.602Z,58.43
2023-02-23T22:21:13.649Z,58.67
2023-02-23T22:23:41.555Z,58.89
2023-02-23T22:26:09.124Z,58.70
2023-02-23T22:28:36.698Z,58.84
2023-02-23T22:31:08.889Z,58.94
2023-02-23T22:33:37.258Z,59.06
2023-02-23T22:36:08.062Z,59.42
2023-02-23T22:38:35.060Z,59.32
2023-02-23T22:41:02.103Z,59.76
2023-02-23T22:43:30.658Z,59.50
2023-02-23T22:45:58.043Z,59.88
2023-02-23T22:48:24.973Z,59.59
2023-02-23T22:50:51.737Z,60.00
2023-02-23T22:53:18.647Z,59.39
2023-02-23T22:55:50.023Z,59.94
2023-02-23T22:58:17.478Z,59.84
2023-02-23T23:01:04.149Z,59.84
2023-02-23T23:03:35.788Z,60.07
2023-02-23T23:06:04.753Z,60.03
2023-02-23T23:08:36.888Z,60.10
2023-02-23T23:11:18.717Z,60.33
2023-02-23T23:13:51.664Z,60.02
2023-02-23T23:16:31.059Z,60.14
2023-02-23T23:19:12.009Z,60.05
2023-02-23T23:21:41.301Z,60.65
2023-02-23T23:24:09.926Z,60.70
2023-02-23T23:26:39.799Z,60.85
2023-02-23T23:29:10.285Z,60.66
2023-02-23T23:31:38.076Z,60.79
2023-02-23T23:34:10.766Z,60.77
2023-02-23T23:36:45.947Z,60.87
2023-02-23T23:39:16.303Z,60.95
2023-02-23T23:41:43.793Z,60.74
2023-02-23T23:44:10.745Z,61.36
2023-02-23T23:46:42.637Z,60.99
2023-02-23T23:49:12.523Z,61.57
2023-02-23T23:51:45.411Z,61.55
2023-02-23T23:54:15.509Z,61.63
2023-02-23T23:56:43.590Z,61.80
2023-02-23T23:59:16.347Z,62.03
